Time;durP1;ratioP1;P1;durP2;ratioP2;P2;SDS_P1;SDS_P2;PMS_P1;PMS_P2;Temp;Humidity;BMP_temperature;BMP_pressure;BME280_temperature;BME280_humidity;BME280_pressure;Samples;Min_cycle;Max_cycle;Signal;HPM_P1;HPM_P2
2022/12/11 00:02:00;;;;;;;87.97;17.75;;;1.40;99.90;;;;;;5035611;28;20399;-77
2022/12/11 00:04:26;;;;;;;73.03;18.15;;;1.40;99.90;;;;;;5035589;28;20022;-77
2022/12/11 00:06:51;;;;;;;83.97;18.55;;;1.40;99.90;;;;;;5036745;28;20037;-77
2022/12/11 00:09:18;;;;;;;82.53;18.02;;;1.50;99.90;;;;;;5036643;28;20096;-77
2022/12/11 00:11:44;;;;;;;77.95;16.25;;;1.50;99.90;;;;;;5036093;28;20116;-77
2022/12/11 00:14:09;;;;;;;80.43;18.60;;;1.50;99.90;;;;;;5037128;28;20053;-77
2022/12/11 00:16:35;;;;;;;84.55;19.20;;;1.40;99.90;;;;;;5036139;28;20022;-77
2022/12/11 00:19:00;;;;;;;71.50;17.08;;;1.50;99.90;;;;;;5036216;28;20018;-77
2022/12/11 00:21:26;;;;;;;83.18;20.42;;;1.50;99.90;;;;;;5037294;28;20017;-77
2022/12/11 00:23:52;;;;;;;76.38;18.13;;;1.50;99.90;;;;;;5035786;28;20033;-77
2022/12/11 00:26:17;;;;;;;71.70;16.05;;;1.50;99.90;;;;;;5037085;28;20013;-77
2022/12/11 00:28:44;;;;;;;76.82;19.60;;;1.50;99.90;;;;;;5036995;28;20027;-77
2022/12/11 00:31:17;;;;;;;67.05;16.13;;;1.50;99.90;;;;;;5035180;28;20391;-77
2022/12/11 00:33:47;;;;;;;62.90;16.38;;;1.40;99.90;;;;;;5035081;28;20052;-77
2022/12/11 00:36:15;;;;;;;78.50;18.75;;;1.60;99.90;;;;;;5035619;28;20017;-77
2022/12/11 00:38:41;;;;;;;73.90;17.63;;;1.60;99.90;;;;;;5037001;28;20080;-77
2022/12/11 00:41:07;;;;;;;70.15;17.52;;;1.60;99.90;;;;;;5035836;28;20088;-77
2022/12/11 00:43:33;;;;;;;76.10;17.08;;;1.60;99.90;;;;;;5035588;28;20477;-77
2022/12/11 00:45:59;;;;;;;72.18;18.55;;;1.60;99.90;;;;;;5035631;28;20021;-77
2022/12/11 00:48:24;;;;;;;74.57;17.30;;;1.60;99.90;;;;;;5036671;28;20030;-77
2022/12/11 00:50:50;;;;;;;81.20;19.08;;;1.60;99.90;;;;;;5035419;28;20030;-77
2022/12/11 00:53:16;;;;;;;77.07;18.50;;;1.60;99.90;;;;;;5037784;28;20021;-77
2022/12/11 00:55:42;;;;;;;70.70;20.42;;;1.60;99.90;;;;;;5035841;28;20025;-77
2022/12/11 00:58:08;;;;;;;88.68;19.90;;;1.60;99.90;;;;;;5035910;28;20025;-77
2022/12/11 01:00:34;;;;;;;73.88;18.52;;;1.70;99.90;;;;;;5035621;28;20033;-77
2022/12/11 01:02:59;;;;;;;85.22;21.45;;;1.70;99.90;;;;;;5035515;28;20048;-77
2022/12/11 01:05:25;;;;;;;80.10;20.10;;;1.70;99.90;;;;;;5035206;28;20483;-77
2022/12/11 01:07:51;;;;;;;96.00;21.02;;;1.70;99.90;;;;;;5036931;28;20026;-77
2022/12/11 01:10:25;;;;;;;81.18;18.40;;;1.70;99.90;;;;;;5035777;28;20026;-77
2022/12/11 01:12:58;;;;;;;86.38;20.08;;;1.70;99.90;;;;;;5035743;28;20022;-77
2022/12/11 01:15:27;;;;;;;93.95;21.85;;;1.60;99.90;;;;;;5037189;28;20037;-77
2022/12/11 01:17:53;;;;;;;79.93;19.42;;;1.60;99.90;;;;;;5037067;28;20071;-77
2022/12/11 01:20:20;;;;;;;83.57;19.67;;;1.60;99.90;;;;;;5035639;28;20025;-77
2022/12/11 01:22:46;;;;;;;81.53;20.63;;;1.60;99.90;;;;;;5036712;28;20484;-77
2022/12/11 01:25:11;;;;;;;75.10;20.85;;;1.70;99.90;;;;;;5035932;28;20022;-77
2022/12/11 01:27:38;;;;;;;88.13;20.77;;;1.60;99.90;;;;;;5036518;28;20026;-77
2022/12/11 01:30:06;;;;;;;74.43;19.00;;;1.70;99.90;;;;;;5035575;28;20048;-77
2022/12/11 01:32:33;;;;;;;87.05;19.27;;;1.70;99.90;;;;;;5035267;28;20048;-77
2022/12/11 01:35:01;;;;;;;88.50;20.42;;;1.70;99.90;;;;;;5035458;28;20032;-77
2022/12/11 01:37:26;;;;;;;84.70;21.05;;;1.70;99.90;;;;;;5034789;28;20024;-76
2022/12/11 01:39:52;;;;;;;72.80;18.58;;;1.60;99.90;;;;;;5034222;28;20488;-76
2022/12/11 01:42:19;;;;;;;87.22;20.38;;;1.60;99.90;;;;;;5034533;28;20468;-76
2022/12/11 01:44:45;;;;;;;74.57;19.38;;;1.70;99.90;;;;;;5034762;28;20029;-76
2022/12/11 01:47:10;;;;;;;72.78;19.17;;;1.70;99.90;;;;;;5034404;28;20152;-77
2022/12/11 01:49:39;;;;;;;70.15;17.30;;;1.60;99.90;;;;;;5035886;28;20030;-76
2022/12/11 01:52:06;;;;;;;72.03;18.67;;;1.70;99.90;;;;;;5034456;28;20167;-76
2022/12/11 01:54:33;;;;;;;66.68;18.48;;;1.70;99.90;;;;;;5034447;28;20440;-76
2022/12/11 01:57:03;;;;;;;64.15;18.88;;;1.70;99.90;;;;;;5034700;28;20025;-76
2022/12/11 01:59:33;;;;;;;68.70;17.05;;;1.70;99.90;;;;;;5036058;28;20029;-77
2022/12/11 02:02:06;;;;;;;60.50;17.88;;;1.70;99.90;;;;;;5035962;28;20017;-76
2022/12/11 02:04:35;;;;;;;65.68;17.33;;;1.70;99.90;;;;;;5034882;28;20087;-76
2022/12/11 02:07:02;;;;;;;77.03;19.17;;;1.70;99.90;;;;;;5034453;28;20022;-76
2022/12/11 02:09:33;;;;;;;57.20;16.23;;;1.70;99.90;;;;;;5033876;28;20018;-76
2022/12/11 02:12:08;;;;;;;57.05;16.98;;;1.70;99.90;;;;;;5035095;28;20057;-77
2022/12/11 02:14:38;;;;;;;59.17;18.38;;;1.80;99.90;;;;;;5035573;28;20025;-77
2022/12/11 02:17:13;;;;;;;56.72;17.00;;;1.80;99.90;;;;;;5034390;28;20025;-77
2022/12/11 02:19:57;;;;;;;52.28;16.45;;;1.80;99.90;;;;;;5033369;28;20021;-77
2022/12/11 02:23:00;;;;;;;58.72;16.33;;;1.80;99.90;;;;;;5033428;28;20029;-77
2022/12/11 02:25:37;;;;;;;53.53;16.75;;;1.80;99.90;;;;;;5033412;28;20029;-77
2022/12/11 02:28:15;;;;;;;57.20;15.60;;;1.80;99.90;;;;;;5034756;28;20045;-77
2022/12/11 02:30:42;;;;;;;50.95;16.63;;;1.80;99.90;;;;;;5033408;28;20026;-77
2022/12/11 02:33:11;;;;;;;52.08;16.63;;;1.80;99.90;;;;;;5033498;28;20031;-77
2022/12/11 02:35:40;;;;;;;58.70;15.77;;;1.80;99.90;;;;;;5034158;28;20500;-77
2022/12/11 02:38:27;;;;;;;54.38;16.42;;;1.80;99.90;;;;;;5032719;28;20022;-77
2022/12/11 02:40:54;;;;;;;49.38;16.08;;;1.80;99.90;;;;;;5033123;28;20473;-77
2022/12/11 02:43:22;;;;;;;54.58;15.60;;;1.80;99.90;;;;;;5032632;28;20473;-77
2022/12/11 02:45:49;;;;;;;50.03;16.27;;;1.80;99.90;;;;;;5033161;28;20022;-77
2022/12/11 02:48:16;;;;;;;53.22;16.98;;;1.80;99.90;;;;;;5033201;28;20129;-77
2022/12/11 02:50:46;;;;;;;52.80;16.02;;;1.80;99.90;;;;;;5033232;28;20021;-77
2022/12/11 02:53:16;;;;;;;53.13;16.27;;;1.80;99.90;;;;;;5033218;28;20484;-77
2022/12/11 02:55:43;;;;;;;59.20;17.27;;;1.80;99.90;;;;;;5033199;28;20063;-77
2022/12/11 02:58:22;;;;;;;58.70;16.35;;;1.80;99.90;;;;;;5034434;28;20511;-77
2022/12/11 03:00:48;;;;;;;50.70;15.50;;;1.80;99.90;;;;;;5033054;28;20013;-77
2022/12/11 03:03:14;;;;;;;51.92;16.17;;;1.80;99.90;;;;;;5032908;28;20028;-77
2022/12/11 03:05:41;;;;;;;43.35;14.45;;;1.80;99.90;;;;;;5034045;28;20033;-77
2022/12/11 03:08:07;;;;;;;35.03;10.77;;;1.80;99.90;;;;;;5034007;28;20053;-77
2022/12/11 03:10:33;;;;;;;39.97;13.35;;;1.80;99.90;;;;;;5034111;28;20048;-77
2022/12/11 03:12:59;;;;;;;43.83;13.75;;;1.80;99.90;;;;;;5032593;28;20028;-77
2022/12/11 03:16:02;;;;;;;34.47;12.63;;;1.80;99.90;;;;;;5033969;28;20037;-77
2022/12/11 03:18:35;;;;;;;39.58;12.32;;;1.70;99.90;;;;;;5034520;28;20013;-77
2022/12/11 03:21:09;;;;;;;37.38;12.23;;;1.70;99.90;;;;;;5034604;28;20420;-77
2022/12/11 03:24:25;;;;;;;33.50;12.00;;;1.80;99.90;;;;;;5034816;28;20030;-77
2022/12/11 03:26:59;;;;;;;33.05;11.10;;;1.70;99.90;;;;;;4980197;28;20489;-77
2022/12/11 03:29:31;;;;;;;29.85;10.80;;;1.70;99.90;;;;;;5033889;28;20037;-77
2022/12/11 03:32:07;;;;;;;29.60;9.60;;;1.70;99.90;;;;;;5036859;28;20021;-77
2022/12/11 03:34:51;;;;;;;30.35;10.32;;;1.70;99.90;;;;;;5036463;28;20067;-77
2022/12/11 03:37:20;;;;;;;30.63;10.23;;;1.70;99.90;;;;;;5036582;28;20484;-76
2022/12/11 03:39:50;;;;;;;28.35;8.77;;;1.70;99.90;;;;;;5037801;28;20384;-76
2022/12/11 03:42:18;;;;;;;25.85;9.32;;;1.70;99.90;;;;;;5036491;28;20021;-76
2022/12/11 03:44:48;;;;;;;29.45;10.70;;;1.70;99.90;;;;;;5037720;28;20491;-76
2022/12/11 03:47:18;;;;;;;25.63;10.50;;;1.80;99.90;;;;;;5036411;28;20529;-77
2022/12/11 03:49:46;;;;;;;23.83;8.32;;;1.80;99.90;;;;;;5036498;28;20037;-77
2022/12/11 03:52:13;;;;;;;25.90;10.00;;;;;;;;;;5037587;28;20018;-77
2022/12/11 03:54:40;;;;;;;32.63;10.85;;;1.70;99.90;;;;;;5037987;28;20028;-77
2022/12/11 03:57:08;;;;;;;27.33;10.27;;;1.70;99.90;;;;;;5036311;28;20018;-77
2022/12/11 03:59:34;;;;;;;27.40;10.82;;;1.70;99.90;;;;;;5036226;28;20040;-77
2022/12/11 04:02:00;;;;;;;26.75;9.27;;;1.70;99.90;;;;;;5036087;28;20022;-77
2022/12/11 04:04:25;;;;;;;27.77;9.18;;;1.80;99.90;;;;;;5036120;28;20022;-77
2022/12/11 04:06:51;;;;;;;30.02;10.00;;;1.80;99.90;;;;;;5037351;28;20484;-77
2022/12/11 04:09:16;;;;;;;27.23;10.27;;;1.70;99.90;;;;;;5036654;28;20033;-77
2022/12/11 04:11:42;;;;;;;26.90;9.30;;;1.80;99.90;;;;;;5037359;28;20109;-77
2022/12/11 04:16:56;;;;;;;27.90;9.98;;;1.80;99.90;;;;;;5037186;28;20036;-76
2022/12/11 04:24:56;;;;;;;25.00;10.00;;;1.80;99.90;;;;;;5078791;28;20102;-75
2022/12/11 04:30:09;;;;;;;31.25;11.13;;;1.80;99.90;;;;;;5077713;28;20043;-75
2022/12/11 04:32:34;;;;;;;28.50;10.63;;;4.10;99.90;;;;;;5076204;28;20463;-75
2022/12/11 04:35:00;;;;;;;34.08;12.65;;;1.80;99.90;;;;;;5076469;28;20020;-75
2022/12/11 04:37:26;;;;;;;35.05;12.38;;;1.80;99.90;;;;;;5077561;28;20025;-75
2022/12/11 04:39:52;;;;;;;32.42;11.18;;;1.80;99.90;;;;;;5076150;28;20069;-75
2022/12/11 04:42:18;;;;;;;28.67;10.30;;;1.80;99.90;;;;;;5077536;28;20099;-75
2022/12/11 04:44:43;;;;;;;28.92;11.35;;;1.80;99.90;;;;;;5076257;28;20028;-75
2022/12/11 04:47:09;;;;;;;28.02;10.43;;;1.80;99.90;;;;;;5076688;28;20096;-75
2022/12/11 04:49:35;;;;;;;34.03;12.40;;;1.80;99.90;;;;;;5075847;28;20051;-76
2022/12/11 04:52:00;;;;;;;32.58;12.70;;;1.80;99.90;;;;;;5076105;28;20021;-76
2022/12/11 04:54:28;;;;;;;29.40;11.15;;;1.80;99.90;;;;;;5076373;28;20502;-76
2022/12/11 04:56:54;;;;;;;33.47;11.30;;;1.70;99.90;;;;;;5075600;28;20028;-76
2022/12/11 04:59:19;;;;;;;34.03;12.98;;;1.70;99.90;;;;;;5077204;28;20021;-76
2022/12/11 05:01:45;;;;;;;32.08;11.40;;;1.70;99.90;;;;;;5077278;28;20059;-76
2022/12/11 05:04:10;;;;;;;30.67;11.13;;;1.80;99.90;;;;;;5077374;28;20025;-75
2022/12/11 05:06:36;;;;;;;29.55;12.00;;;1.80;99.90;;;;;;5077476;28;20027;-75
2022/12/11 05:09:02;;;;;;;32.85;11.98;;;1.70;99.90;;;;;;5076975;28;20020;-75
2022/12/11 05:11:28;;;;;;;32.88;11.70;;;1.70;99.90;;;;;;5076470;28;20051;-75
2022/12/11 05:13:53;;;;;;;32.33;11.82;;;1.70;99.90;;;;;;5075660;28;20025;-76
2022/12/11 05:16:19;;;;;;;28.55;10.73;;;1.70;99.90;;;;;;5076727;28;20043;-76
2022/12/11 05:18:46;;;;;;;33.63;12.85;;;1.70;99.90;;;;;;5077456;28;20147;-76
2022/12/11 05:21:13;;;;;;;27.90;10.45;;;1.70;99.90;;;;;;5076977;28;20497;-76
2022/12/11 05:23:40;;;;;;;30.77;11.05;;;1.70;99.90;;;;;;5076235;28;20036;-76
2022/12/11 05:26:10;;;;;;;31.92;11.40;;;1.70;99.90;;;;;;5074760;28;20052;-76
2022/12/11 05:28:37;;;;;;;35.40;12.18;;;1.70;99.90;;;;;;5076423;28;20047;-75
2022/12/11 05:31:11;;;;;;;29.38;9.93;;;1.60;99.90;;;;;;5075842;28;20016;-75
2022/12/11 05:33:36;;;;;;;29.88;10.73;;;1.70;99.90;;;;;;5076369;28;20032;-75
2022/12/11 05:36:03;;;;;;;30.20;10.60;;;1.60;99.90;;;;;;5074545;28;20491;-75
2022/12/11 05:38:28;;;;;;;27.45;10.43;;;1.60;99.90;;;;;;5075500;28;20020;-75
2022/12/11 05:40:59;;;;;;;29.80;10.00;;;1.60;99.90;;;;;;5076020;28;20066;-75
2022/12/11 05:43:26;;;;;;;30.05;10.23;;;1.60;99.90;;;;;;5075511;28;20024;-75
2022/12/11 05:45:51;;;;;;;31.55;11.13;;;1.60;99.90;;;;;;5073192;28;20020;-75
2022/12/11 05:48:17;;;;;;;30.90;11.73;;;1.60;99.90;;;;;;5074181;28;20395;-76
2022/12/11 05:50:43;;;;;;;29.23;11.48;;;1.60;99.90;;;;;;5075332;28;20020;-76
2022/12/11 05:53:08;;;;;;;31.80;11.30;;;1.60;99.90;;;;;;5075434;28;20025;-76
2022/12/11 05:55:34;;;;;;;31.90;10.23;;;1.60;99.90;;;;;;5074881;28;20087;-76
2022/12/11 05:58:00;;;;;;;28.35;10.60;;;1.60;99.90;;;;;;5074142;28;20037;-76
2022/12/11 06:00:25;;;;;;;29.95;10.88;;;1.90;99.90;;;;;;5073773;28;20020;-76
2022/12/11 06:02:51;;;;;;;33.08;11.00;;;1.60;99.90;;;;;;5075321;28;20020;-76
2022/12/11 06:05:16;;;;;;;31.73;11.15;;;1.60;99.90;;;;;;5073015;28;20048;-76
2022/12/11 06:07:42;;;;;;;28.85;11.23;;;1.60;99.90;;;;;;5075068;28;20483;-76
2022/12/11 06:10:08;;;;;;;32.38;11.05;;;1.60;99.90;;;;;;5074954;28;20086;-76
2022/12/11 06:12:33;;;;;;;28.90;10.60;;;1.60;99.90;;;;;;5073881;28;20025;-75
2022/12/11 06:14:59;;;;;;;29.55;11.32;;;1.60;99.90;;;;;;5073421;28;20513;-76
2022/12/11 06:17:24;;;;;;;32.25;10.63;;;1.60;99.90;;;;;;5074580;28;20017;-76
2022/12/11 06:19:50;;;;;;;31.05;10.90;;;1.60;99.90;;;;;;5073566;28;20032;-76
2022/12/11 06:22:15;;;;;;;31.08;11.30;;;1.60;99.90;;;;;;5075262;28;20055;-76
2022/12/11 06:24:41;;;;;;;30.52;9.45;;;1.60;99.90;;;;;;5073566;28;20112;-76
2022/12/11 06:27:07;;;;;;;26.90;9.68;;;1.60;99.90;;;;;;5074753;28;20032;-76
2022/12/11 06:29:33;;;;;;;29.45;10.90;;;1.50;99.90;;;;;;5073056;28;20482;-76
2022/12/11 06:31:59;;;;;;;29.55;10.38;;;1.60;99.90;;;;;;5074388;28;20106;-76
2022/12/11 06:34:24;;;;;;;30.27;10.68;;;1.60;99.90;;;;;;5073374;28;20024;-76
2022/12/11 06:36:50;;;;;;;29.73;11.18;;;1.60;99.90;;;;;;5074885;28;20374;-76
2022/12/11 06:39:15;;;;;;;31.00;11.32;;;1.60;99.90;;;;;;5073207;28;20029;-76
2022/12/11 06:41:41;;;;;;;30.83;10.10;;;1.60;99.90;;;;;;5073854;28;20043;-76
2022/12/11 06:44:06;;;;;;;31.35;12.25;;;1.50;99.90;;;;;;5073143;28;20103;-76
2022/12/11 06:46:32;;;;;;;34.40;11.27;;;1.50;99.90;;;;;;5074377;28;20111;-76
2022/12/11 06:48:58;;;;;;;27.10;11.55;;;1.50;99.90;;;;;;5074615;28;20021;-76
2022/12/11 06:51:23;;;;;;;33.75;12.15;;;1.50;99.90;;;;;;5074754;28;20027;-76
2022/12/11 06:53:58;;;;;;;32.63;13.18;;;1.50;99.90;;;;;;5073682;28;20024;-76
2022/12/11 06:56:24;;;;;;;31.10;11.43;;;1.50;99.90;;;;;;5073400;28;20020;-76
2022/12/11 06:58:50;;;;;;;33.15;10.85;;;1.50;99.90;;;;;;5073718;28;20028;-76
2022/12/11 07:01:22;;;;;;;29.02;11.88;;;1.50;99.90;;;;;;5072394;28;20020;-76
2022/12/11 07:03:48;;;;;;;32.60;11.07;;;1.50;99.90;;;;;;5072404;28;20056;-76
2022/12/11 07:06:13;;;;;;;36.50;11.63;;;1.50;99.90;;;;;;5073556;28;20025;-76
2022/12/11 07:08:40;;;;;;;31.10;10.95;;;1.50;99.90;;;;;;5072242;28;20032;-76
2022/12/11 07:11:08;;;;;;;32.40;11.27;;;1.50;99.90;;;;;;5072240;28;20033;-76
2022/12/11 07:13:34;;;;;;;31.43;11.90;;;1.60;99.90;;;;;;5072260;28;20027;-76
2022/12/11 07:16:00;;;;;;;36.58;11.93;;;1.50;99.90;;;;;;5072113;28;20307;-76
2022/12/11 07:18:27;;;;;;;34.63;11.23;;;1.50;99.90;;;;;;5073522;28;20475;-76
2022/12/11 07:20:52;;;;;;;32.22;11.00;;;1.60;99.90;;;;;;5072179;28;20020;-76
2022/12/11 07:23:18;;;;;;;35.80;11.73;;;1.60;99.90;;;;;;5071984;28;20029;-76
2022/12/11 07:25:44;;;;;;;35.90;11.18;;;1.60;99.90;;;;;;5073282;28;20075;-76
2022/12/11 07:28:09;;;;;;;37.10;11.82;;;1.60;99.90;;;;;;5073474;28;20020;-76
2022/12/11 07:30:37;;;;;;;31.15;11.70;;;1.60;99.90;;;;;;5072032;28;20106;-76
2022/12/11 07:33:03;;;;;;;26.02;8.50;;;1.60;99.90;;;;;;5073633;28;20017;-76
2022/12/11 07:35:29;;;;;;;28.58;10.02;;;1.50;99.90;;;;;;5072983;28;20098;-76
2022/12/11 07:37:54;;;;;;;29.30;10.88;;;1.50;99.90;;;;;;5072224;28;20056;-76
2022/12/11 07:40:20;;;;;;;27.05;9.65;;;1.50;99.90;;;;;;5073165;28;20028;-76
2022/12/11 07:42:45;;;;;;;27.92;9.60;;;1.50;99.90;;;;;;5073112;28;20055;-76
2022/12/11 07:45:11;;;;;;;26.30;9.93;;;1.50;99.90;;;;;;5071893;28;20017;-76
2022/12/11 07:47:36;;;;;;;27.00;10.38;;;1.50;99.90;;;;;;5073049;28;20528;-76
2022/12/11 07:50:02;;;;;;;30.00;10.80;;;1.50;99.90;;;;;;5074596;28;20029;-76
2022/12/11 07:52:28;;;;;;;29.58;9.63;;;1.50;99.90;;;;;;5074471;28;20024;-76
2022/12/11 07:54:53;;;;;;;28.25;11.00;;;1.50;99.90;;;;;;5073875;28;20024;-76
2022/12/11 07:57:19;;;;;;;31.77;11.48;;;1.40;99.90;;;;;;5072598;28;20071;-76
2022/12/11 07:59:45;;;;;;;27.25;10.30;;;1.40;99.90;;;;;;5072628;28;20497;-76
2022/12/11 08:02:11;;;;;;;31.38;11.52;;;1.50;99.90;;;;;;5073926;28;20608;-76
2022/12/11 08:04:37;;;;;;;28.13;11.07;;;1.50;99.90;;;;;;5073125;28;20031;-76
2022/12/11 08:07:02;;;;;;;31.13;10.98;;;1.50;99.90;;;;;;5072360;28;20056;-76
2022/12/11 08:09:28;;;;;;;31.30;10.40;;;1.50;99.90;;;;;;5074775;28;20074;-76
2022/12/11 08:11:53;;;;;;;34.15;12.52;;;1.50;99.90;;;;;;5076276;28;20421;-76
2022/12/11 08:14:19;;;;;;;27.48;10.35;;;1.50;99.90;;;;;;5076050;28;20546;-76
2022/12/11 08:16:45;;;;;;;31.40;10.18;;;1.50;99.90;;;;;;5077115;28;20077;-76
2022/12/11 08:19:11;;;;;;;26.80;10.23;;;1.50;99.90;;;;;;5076879;28;20021;-76
2022/12/11 08:21:37;;;;;;;27.13;9.70;;;1.50;99.90;;;;;;5075802;28;20023;-76
2022/12/11 08:24:03;;;;;;;29.42;11.43;;;1.50;99.90;;;;;;5076726;28;20028;-76
2022/12/11 08:26:30;;;;;;;25.42;9.60;;;1.40;99.90;;;;;;5076754;28;20395;-76
2022/12/11 08:28:57;;;;;;;22.08;9.00;;;1.40;99.90;;;;;;5075603;28;20509;-76
2022/12/11 08:31:23;;;;;;;22.65;9.48;;;1.40;99.90;;;;;;5075330;28;20020;-76
2022/12/11 08:33:49;;;;;;;23.05;8.85;;;1.40;99.90;;;;;;5075116;28;20021;-76
2022/12/11 08:36:17;;;;;;;29.38;11.07;;;1.40;99.90;;;;;;5075350;28;20065;-76
2022/12/11 08:38:43;;;;;;;27.80;10.60;;;1.40;99.90;;;;;;5076530;28;20024;-76
2022/12/11 08:41:17;;;;;;;27.92;10.70;;;1.40;99.90;;;;;;5075675;28;20489;-76
2022/12/11 08:43:43;;;;;;;28.20;10.43;;;1.40;99.90;;;;;;5075957;28;20028;-76
2022/12/11 08:46:10;;;;;;;26.63;10.38;;;1.40;99.90;;;;;;5075568;28;20107;-76
2022/12/11 08:48:37;;;;;;;28.88;11.07;;;1.40;99.90;;;;;;5075511;28;20046;-76
2022/12/11 08:51:05;;;;;;;27.52;11.27;;;1.40;99.90;;;;;;5076829;28;20031;-76
2022/12/11 08:53:31;;;;;;;30.50;12.27;;;1.40;99.90;;;;;;5077524;28;20033;-76
2022/12/11 08:56:06;;;;;;;30.48;11.98;;;1.50;99.90;;;;;;5075841;28;20021;-76
2022/12/11 08:58:31;;;;;;;34.33;12.65;;;1.50;99.90;;;;;;5077452;28;20479;-76
2022/12/11 09:00:58;;;;;;;34.50;12.32;;;1.50;99.90;;;;;;5075922;28;20017;-76
2022/12/11 09:03:24;;;;;;;35.35;12.75;;;1.50;99.90;;;;;;5076852;28;20480;-76
2022/12/11 09:05:50;;;;;;;41.63;12.32;;;1.60;99.90;;;;;;5075634;28;20021;-76
2022/12/11 09:08:16;;;;;;;31.77;12.50;;;1.60;99.90;;;;;;5076034;28;20441;-76
2022/12/11 09:10:41;;;;;;;29.23;11.63;;;1.60;99.90;;;;;;5077097;28;20032;-76
2022/12/11 09:13:07;;;;;;;29.60;11.07;;;1.70;99.90;;;;;;5077753;28;20028;-76
2022/12/11 09:15:33;;;;;;;33.97;13.13;;;1.70;99.90;;;;;;5076151;28;20021;-76
2022/12/11 09:17:58;;;;;;;33.88;12.70;;;1.70;99.90;;;;;;5077160;28;20020;-76
2022/12/11 09:20:24;;;;;;;35.05;13.73;;;1.70;99.90;;;;;;5074373;28;20024;-76
2022/12/11 09:22:49;;;;;;;37.88;14.07;;;1.80;99.90;;;;;;5074648;28;20024;-76
2022/12/11 09:25:15;;;;;;;29.88;11.70;;;;;;;;;;5075813;28;20033;-76
2022/12/11 09:27:41;;;;;;;31.27;11.77;;;1.80;99.90;;;;;;5074642;28;20032;-76
2022/12/11 09:30:07;;;;;;;32.47;12.82;;;1.80;99.90;;;;;;5074953;28;20028;-76
2022/12/11 09:32:33;;;;;;;37.58;14.02;;;1.80;99.90;;;;;;5075572;28;20419;-76
2022/12/11 09:34:58;;;;;;;34.85;14.10;;;1.80;99.90;;;;;;5076449;28;20024;-79
2022/12/11 09:37:24;;;;;;;35.60;13.20;;;1.90;99.90;;;;;;5075005;28;20434;-79
2022/12/11 09:39:49;;;;;;;32.10;12.52;;;1.90;99.90;;;;;;5075822;28;20360;-79
2022/12/11 09:42:38;;;;;;;31.15;13.10;;;1.90;99.90;;;;;;5075753;28;20471;-79
2022/12/11 09:45:06;;;;;;;30.70;12.80;;;1.90;99.90;;;;;;5069821;28;20028;-79
2022/12/11 09:47:39;;;;;;;31.37;12.53;;;1.90;99.90;;;;;;5076379;28;20046;-79
2022/12/11 09:50:24;;;;;;;27.23;10.68;;;1.90;99.90;;;;;;5074430;28;20028;-79
2022/12/11 09:52:53;;;;;;;32.55;11.82;;;1.90;99.90;;;;;;5074300;28;20097;-79
2022/12/11 09:55:24;;;;;;;34.60;12.48;;;2.00;99.90;;;;;;5075365;28;20033;-79
2022/12/11 09:58:05;;;;;;;29.15;10.93;;;2.00;99.90;;;;;;5074084;28;20017;-79
2022/12/11 10:00:55;;;;;;;33.80;12.13;;;2.00;99.90;;;;;;5075542;28;20027;-79
2022/12/11 10:03:29;;;;;;;30.63;11.52;;;2.00;99.90;;;;;;5063813;28;20491;-79
2022/12/11 10:06:15;;;;;;;29.42;11.68;;;2.10;99.90;;;;;;5073974;28;20059;-79
2022/12/11 10:09:08;;;;;;;26.27;10.77;;;2.00;99.90;;;;;;5063466;28;20036;-78
2022/12/11 10:11:54;;;;;;;31.73;11.27;;;2.10;99.90;;;;;;5075707;28;20025;-79
2022/12/11 10:14:42;;;;;;;39.83;12.82;;;2.10;99.90;;;;;;5074739;28;20036;-78
2022/12/11 10:17:19;;;;;;;26.92;10.80;;;2.20;99.90;;;;;;5073597;28;20394;-78
2022/12/11 10:19:46;;;;;;;32.85;12.63;;;2.20;99.90;;;;;;5074167;28;20045;-78
2022/12/11 10:22:24;;;;;;;28.13;10.63;;;2.20;99.90;;;;;;5073673;28;20029;-79
2022/12/11 10:25:04;;;;;;;28.77;10.13;;;2.20;99.90;;;;;;5073706;28;20040;-79
2022/12/11 10:27:33;;;;;;;25.85;9.75;;;2.30;99.90;;;;;;5075163;28;20430;-79
2022/12/11 10:30:15;;;;;;;;;;;2.30;99.90;;;;;;5074170;28;20021;-79
2022/12/11 10:33:04;;;;;;;25.95;9.13;;;2.30;99.90;;;;;;5074457;28;20347;-79
2022/12/11 10:35:35;;;;;;;26.48;9.77;;;2.30;99.90;;;;;;5074352;28;20021;-79
2022/12/11 10:38:16;;;;;;;30.20;10.50;;;2.30;99.90;;;;;;5074367;28;20025;-79
2022/12/11 10:40:49;;;;;;;24.85;9.27;;;2.40;99.90;;;;;;5072986;28;20075;-79
2022/12/11 10:43:14;;;;;;;23.08;8.82;;;2.40;99.90;;;;;;5073142;28;20055;-79
2022/12/11 10:45:50;;;;;;;25.92;10.45;;;2.40;99.90;;;;;;5074943;28;20051;-79
2022/12/11 10:48:16;;;;;;;26.42;9.45;;;2.40;99.90;;;;;;5073125;28;20058;-79
2022/12/11 10:50:44;;;;;;;26.92;9.80;;;2.40;99.90;;;;;;5073362;28;20025;-79
2022/12/11 10:53:20;;;;;;;25.95;10.70;;;2.40;99.90;;;;;;5074506;28;20388;-78
2022/12/11 10:55:48;;;;;;;27.55;9.77;;;2.40;99.90;;;;;;5073593;28;20493;-79
2022/12/11 10:58:23;;;;;;;23.20;9.32;;;2.40;99.90;;;;;;5074907;28;20490;-79
2022/12/11 11:01:05;;;;;;;22.85;8.75;;;2.40;99.90;;;;;;5074658;28;20100;-79
2022/12/11 11:03:32;;;;;;;23.60;9.60;;;2.50;99.90;;;;;;5073481;28;20070;-79
2022/12/11 11:06:03;;;;;;;24.60;10.20;;;2.50;99.90;;;;;;5074817;28;20025;-79
2022/12/11 11:08:37;;;;;;;24.33;8.80;;;2.60;99.90;;;;;;5074789;28;20020;-79
2022/12/11 11:11:03;;;;;;;25.15;8.77;;;2.60;99.90;;;;;;5073181;28;20027;-79
2022/12/11 11:13:30;;;;;;;25.30;9.27;;;2.50;99.90;;;;;;5075314;28;20033;-79
2022/12/11 11:16:05;;;;;;;25.58;8.95;;;2.60;99.90;;;;;;5074355;28;20035;-79
2022/12/11 11:18:32;;;;;;;23.70;9.27;;;2.70;99.90;;;;;;5074981;28;20031;-79
2022/12/11 11:20:58;;;;;;;19.58;7.55;;;2.60;99.90;;;;;;5074554;28;20013;-79
2022/12/11 11:23:25;;;;;;;22.10;7.78;;;2.70;99.90;;;;;;5074695;28;20064;-79
2022/12/11 11:25:54;;;;;;;23.80;9.27;;;2.70;99.90;;;;;;5075560;28;20395;-79
2022/12/11 11:28:30;;;;;;;22.20;8.43;;;2.70;99.90;;;;;;5074560;28;20027;-78
2022/12/11 11:31:04;;;;;;;22.95;8.30;;;2.70;99.90;;;;;;5075241;28;20531;-79
2022/12/11 11:33:33;;;;;;;23.52;8.60;;;2.70;99.90;;;;;;5075398;28;20056;-79
2022/12/11 11:36:05;;;;;;;22.55;7.90;;;2.70;99.90;;;;;;5074149;28;20029;-79
2022/12/11 11:38:43;;;;;;;22.95;8.77;;;2.70;99.90;;;;;;5074878;28;20024;-79
2022/12/11 11:41:16;;;;;;;23.17;6.85;;;2.60;99.90;;;;;;5075502;28;20032;-79
2022/12/11 11:43:51;;;;;;;22.02;7.95;;;2.60;99.90;;;;;;5074398;28;20023;-79
2022/12/11 11:46:23;;;;;;;24.40;9.18;;;2.70;99.90;;;;;;5078936;28;20025;-79
2022/12/11 11:49:03;;;;;;;21.02;9.18;;;2.60;99.90;;;;;;5079713;28;20046;-79
2022/12/11 11:51:44;;;;;;;27.83;8.77;;;2.60;99.90;;;;;;5079063;28;20028;-79
2022/12/11 11:54:31;;;;;;;23.90;8.63;;;2.50;99.90;;;;;;5078110;28;20415;-79
2022/12/11 11:57:00;;;;;;;17.45;6.57;;;2.50;99.90;;;;;;5078217;28;20506;-79
2022/12/11 11:59:33;;;;;;;26.65;8.57;;;2.50;99.90;;;;;;5077892;28;20028;-79
2022/12/11 12:01:59;;;;;;;21.77;8.00;;;2.50;99.90;;;;;;5078681;28;20044;-79
2022/12/11 12:04:31;;;;;;;25.08;9.45;;;2.60;99.90;;;;;;5077589;28;20019;-79
2022/12/11 12:07:26;;;;;;;23.90;9.20;;;2.60;99.90;;;;;;5078368;28;20047;-79
2022/12/11 12:10:02;;;;;;;24.13;8.25;;;2.60;99.90;;;;;;5077167;28;20029;-79
2022/12/11 12:12:46;;;;;;;23.38;9.25;;;2.60;99.90;;;;;;5078401;28;20025;-79
2022/12/11 12:15:57;;;;;;;21.58;8.40;;;2.70;99.90;;;;;;5077527;28;20491;-79
2022/12/11 12:18:32;;;;;;;27.95;10.32;;;2.70;99.90;;;;;;5077022;28;20023;-79
2022/12/11 12:21:02;;;;;;;26.05;8.90;;;2.70;99.90;;;;;;5079047;28;20020;-79
2022/12/11 12:24:01;;;;;;;23.10;9.45;;;3.30;99.90;;;;;;5078898;28;20032;-79
2022/12/11 12:26:31;;;;;;;25.08;7.95;;;2.70;99.90;;;;;;5077946;28;20047;-79
2022/12/11 12:29:25;;;;;;;30.00;10.88;;;2.70;99.90;;;;;;5079253;28;20070;-79
2022/12/11 12:31:54;;;;;;;25.33;10.07;;;2.80;99.90;;;;;;5077544;28;20029;-79
2022/12/11 12:34:32;;;;;;;28.05;9.68;;;2.80;99.90;;;;;;5076224;28;20035;-79
2022/12/11 12:37:33;;;;;;;27.33;10.48;;;2.80;99.90;;;;;;5076082;28;20056;-79
2022/12/11 12:40:26;;;;;;;27.83;9.98;;;2.80;99.90;;;;;;5077983;28;20021;-79
2022/12/11 12:43:29;;;;;;;29.50;11.55;;;2.80;99.90;;;;;;5079798;28;20017;-79
2022/12/11 12:46:19;;;;;;;27.15;9.85;;;2.80;99.90;;;;;;5079089;28;20505;-79
2022/12/11 12:48:45;;;;;;;33.72;11.02;;;2.80;99.90;;;;;;5076745;28;20040;-79
2022/12/11 12:51:16;;;;;;;36.40;12.02;;;2.90;99.90;;;;;;5077768;28;20395;-79
2022/12/11 12:53:51;;;;;;;34.47;11.85;;;2.90;99.90;;;;;;5077865;28;20433;-79
2022/12/11 12:56:19;;;;;;;29.05;10.52;;;2.80;99.90;;;;;;5077052;28;20024;-79
2022/12/11 12:58:45;;;;;;;36.42;12.75;;;2.70;99.90;;;;;;5076731;28;20477;-79
2022/12/11 13:01:23;;;;;;;33.25;11.93;;;2.70;99.90;;;;;;5078267;28;20021;-79
2022/12/11 13:04:01;;;;;;;32.23;12.33;;;2.70;99.90;;;;;;5075790;28;20443;-79
2022/12/11 13:06:44;;;;;;;35.45;11.35;;;2.70;99.90;;;;;;5076382;28;20313;-79